createdAt,value
2017-03-19T00:00:12.595Z,0
2017-03-19T00:01:21.551Z,0
2017-03-19T00:02:30.800Z,0
2017-03-19T00:03:39.754Z,0
2017-03-19T00:04:48.714Z,0
2017-03-19T00:05:57.672Z,0
2017-03-19T00:07:06.623Z,0
2017-03-19T00:08:15.882Z,0
2017-03-19T00:09:24.842Z,0
2017-03-19T00:10:33.804Z,0
2017-03-19T00:11:42.760Z,0
2017-03-19T00:12:51.713Z,0
2017-03-19T00:14:00.925Z,0
2017-03-19T00:15:09.892Z,0
2017-03-19T00:16:18.854Z,0
2017-03-19T00:17:27.803Z,0
2017-03-19T00:18:36.758Z,0
2017-03-19T00:19:46.052Z,0
2017-03-19T00:20:55.002Z,0
2017-03-19T00:22:03.960Z,0
2017-03-19T00:23:12.925Z,0
2017-03-19T00:24:21.917Z,0
2017-03-19T00:25:31.224Z,0
2017-03-19T00:26:40.267Z,0
2017-03-19T00:27:49.227Z,0
2017-03-19T00:28:58.184Z,0
2017-03-19T00:30:07.140Z,0
2017-03-19T00:31:16.394Z,0
2017-03-19T00:32:25.345Z,0
2017-03-19T00:33:34.393Z,0
2017-03-19T00:34:43.345Z,0
2017-03-19T00:35:52.294Z,0
2017-03-19T00:37:01.502Z,0
2017-03-19T00:38:10.782Z,0
2017-03-19T00:39:19.740Z,0
2017-03-19T00:40:28.701Z,0
2017-03-19T00:41:37.980Z,0
2017-03-19T00:42:47.236Z,0
2017-03-19T00:43:56.204Z,0
2017-03-19T00:45:05.166Z,0
2017-03-19T00:46:14.120Z,0
2017-03-19T00:47:23.082Z,0
2017-03-19T00:48:32.338Z,0
2017-03-19T00:49:41.298Z,0
2017-03-19T00:50:50.252Z,0
2017-03-19T00:51:59.203Z,0
2017-03-19T00:53:08.160Z,0
2017-03-19T00:54:17.371Z,0
2017-03-19T00:55:26.327Z,0
2017-03-19T00:56:35.276Z,0
2017-03-19T00:57:44.230Z,0
2017-03-19T00:58:53.183Z,0
2017-03-19T01:00:02.395Z,0
2017-03-19T01:01:11.378Z,0
2017-03-19T01:02:20.332Z,0
2017-03-19T01:03:29.283Z,0
2017-03-19T01:04:38.237Z,0
2017-03-19T01:05:47.511Z,0
2017-03-19T01:06:56.465Z,0
2017-03-19T01:08:05.424Z,0
2017-03-19T01:09:14.393Z,0
2017-03-19T01:10:23.353Z,0
2017-03-19T01:11:32.655Z,0
2017-03-19T01:12:41.611Z,0
2017-03-19T01:13:50.568Z,0
2017-03-19T01:14:59.614Z,0
2017-03-19T01:16:08.567Z,0
2017-03-19T01:17:17.818Z,0
2017-03-19T01:18:27.522Z,0
2017-03-19T01:19:36.476Z,0
2017-03-19T01:20:45.428Z,0
2017-03-19T01:21:54.471Z,0
2017-03-19T01:23:03.730Z,0
2017-03-19T01:24:12.690Z,0
2017-03-19T01:25:21.651Z,0
2017-03-19T01:26:30.603Z,0
2017-03-19T01:27:39.558Z,0
2017-03-19T01:28:48.769Z,0
2017-03-19T01:29:57.724Z,0
2017-03-19T01:31:07.001Z,0
2017-03-19T01:32:15.953Z,0
2017-03-19T01:33:24.908Z,0
2017-03-19T01:34:34.113Z,0
2017-03-19T01:35:43.062Z,0
2017-03-19T01:36:52.023Z,0
2017-03-19T01:38:00.985Z,0
2017-03-19T01:39:09.947Z,0
2017-03-19T01:40:19.195Z,0
2017-03-19T01:41:28.147Z,0
2017-03-19T01:42:37.100Z,0
2017-03-19T01:43:46.054Z,0
2017-03-19T01:44:55.008Z,0
2017-03-19T01:46:04.267Z,0
2017-03-19T01:47:13.221Z,0
2017-03-19T01:48:22.533Z,0
2017-03-19T01:49:31.489Z,0
2017-03-19T01:50:40.480Z,0
2017-03-19T01:51:49.825Z,0
2017-03-19T01:52:58.775Z,0
2017-03-19T01:54:08.063Z,0
2017-03-19T01:55:17.013Z,0
2017-03-19T01:56:25.962Z,0
2017-03-19T01:57:35.173Z,0
2017-03-19T01:58:44.143Z,0
2017-03-19T01:59:53.102Z,0
2017-03-19T02:01:02.058Z,0
2017-03-19T02:02:11.338Z,0
2017-03-19T02:03:20.543Z,0
2017-03-19T02:04:29.502Z,0
2017-03-19T02:05:38.540Z,0
2017-03-19T02:06:47.501Z,0
2017-03-19T02:07:56.454Z,0
2017-03-19T02:09:05.660Z,0
2017-03-19T02:10:14.617Z,0
2017-03-19T02:11:23.592Z,0
2017-03-19T02:12:32.915Z,0
2017-03-19T02:13:41.871Z,0
2017-03-19T02:14:51.220Z,0
2017-03-19T02:16:00.171Z,0
2017-03-19T02:17:09.122Z,0
2017-03-19T02:18:18.079Z,0
2017-03-19T02:19:27.039Z,0
2017-03-19T02:20:36.291Z,0
2017-03-19T02:21:45.245Z,0
2017-03-19T02:22:54.528Z,0
2017-03-19T02:24:03.478Z,0
2017-03-19T02:25:12.434Z,0
2017-03-19T02:26:21.689Z,0
2017-03-19T02:27:30.641Z,0
2017-03-19T02:28:39.597Z,0
2017-03-19T02:29:48.549Z,0
2017-03-19T02:30:57.498Z,0
2017-03-19T02:32:06.751Z,0
2017-03-19T02:33:15.706Z,0
2017-03-19T02:34:24.698Z,0
2017-03-19T02:35:33.688Z,0
2017-03-19T02:36:42.647Z,0
2017-03-19T02:37:51.985Z,0
2017-03-19T02:39:00.942Z,0
2017-03-19T02:40:09.892Z,0
2017-03-19T02:41:18.844Z,0
2017-03-19T02:42:27.811Z,0
2017-03-19T02:43:37.070Z,0
2017-03-19T02:44:46.028Z,0
2017-03-19T02:45:55.075Z,0
2017-03-19T02:47:04.054Z,0
2017-03-19T02:48:13.010Z,0
2017-03-19T02:49:22.355Z,0
2017-03-19T02:50:31.314Z,0
2017-03-19T02:51:40.270Z,0
2017-03-19T02:52:49.226Z,0
2017-03-19T02:53:58.185Z,0
2017-03-19T02:55:07.437Z,0
2017-03-19T02:56:16.478Z,0
2017-03-19T02:57:25.430Z,0
2017-03-19T02:58:34.724Z,0
2017-03-19T02:59:43.675Z,0
2017-03-19T03:00:52.881Z,0
2017-03-19T03:02:01.832Z,0
2017-03-19T03:03:10.790Z,0
2017-03-19T03:04:19.752Z,0
2017-03-19T03:05:28.708Z,0
2017-03-19T03:06:37.916Z,0
2017-03-19T03:07:46.877Z,0
2017-03-19T03:08:55.836Z,0
2017-03-19T03:10:04.800Z,0
2017-03-19T03:11:13.753Z,0
2017-03-19T03:12:22.961Z,0
2017-03-19T03:13:31.919Z,0
2017-03-19T03:14:40.895Z,0
2017-03-19T03:15:49.852Z,0
2017-03-19T03:16:58.891Z,0
2017-03-19T03:18:08.142Z,0
2017-03-19T03:19:17.109Z,0
2017-03-19T03:20:26.073Z,0
2017-03-19T03:21:35.360Z,0
2017-03-19T03:22:44.317Z,0
2017-03-19T03:23:53.522Z,0
2017-03-19T03:25:02.477Z,0
2017-03-19T03:26:11.432Z,0
2017-03-19T03:27:20.389Z,0
2017-03-19T03:28:29.346Z,0
2017-03-19T03:29:38.602Z,0
2017-03-19T03:30:47.558Z,0
2017-03-19T03:31:56.602Z,0
2017-03-19T03:33:05.563Z,0
2017-03-19T03:34:14.903Z,0
2017-03-19T03:35:24.103Z,0
2017-03-19T03:36:33.379Z,0
2017-03-19T03:37:42.329Z,0
2017-03-19T03:38:51.293Z,0
2017-03-19T03:40:00.248Z,0
2017-03-19T03:41:09.447Z,0
2017-03-19T03:42:18.407Z,0
2017-03-19T03:43:27.359Z,0
2017-03-19T03:44:36.323Z,0
2017-03-19T03:45:45.272Z,0
2017-03-19T03:46:54.561Z,0
2017-03-19T03:48:03.553Z,0
2017-03-19T03:49:12.517Z,0
2017-03-19T03:50:21.471Z,0
2017-03-19T03:51:30.419Z,0
2017-03-19T03:52:39.630Z,0
2017-03-19T03:53:48.582Z,0
2017-03-19T03:54:57.860Z,0
2017-03-19T03:56:06.812Z,0
2017-03-19T03:57:15.941Z,0
2017-03-19T03:58:25.295Z,0
2017-03-19T03:59:34.260Z,0
2017-03-19T04:00:43.538Z,0
2017-03-19T04:01:52.487Z,0
2017-03-19T04:03:01.482Z,0
2017-03-19T04:04:10.744Z,0
2017-03-19T04:05:19.709Z,0
2017-03-19T04:06:28.659Z,0
2017-03-19T04:07:37.608Z,0
2017-03-19T04:08:46.573Z,0
2017-03-19T04:09:55.877Z,0
2017-03-19T04:11:04.834Z,0
2017-03-19T04:12:13.791Z,0
2017-03-19T04:13:22.745Z,0
2017-03-19T04:14:31.705Z,0
2017-03-19T04:15:40.956Z,0
2017-03-19T04:16:49.910Z,0
2017-03-19T04:17:58.870Z,0
2017-03-19T04:19:07.821Z,0
2017-03-19T04:20:16.769Z,0
2017-03-19T04:21:26.111Z,0
2017-03-19T04:22:35.726Z,0
2017-03-19T04:23:45.012Z,0
2017-03-19T04:24:53.972Z,0
2017-03-19T04:26:02.956Z,0
2017-03-19T04:27:12.206Z,0
2017-03-19T04:28:21.483Z,0
2017-03-19T04:29:30.771Z,0
2017-03-19T04:30:39.810Z,0
2017-03-19T04:31:51.795Z,0
2017-03-19T04:33:01.090Z,0
2017-03-19T04:34:10.370Z,0
2017-03-19T04:35:19.333Z,0
2017-03-19T04:36:28.287Z,0
2017-03-19T04:37:37.575Z,0
2017-03-19T04:38:46.838Z,0
2017-03-19T04:39:55.804Z,0
2017-03-19T04:41:04.755Z,0
2017-03-19T04:42:14.118Z,0
2017-03-19T04:43:23.076Z,0
2017-03-19T04:44:32.339Z,4
2017-03-19T04:45:41.331Z,4
2017-03-19T04:46:50.281Z,0
2017-03-19T04:47:59.567Z,4
2017-03-19T04:49:08.527Z,0
2017-03-19T04:50:17.730Z,4
2017-03-19T04:51:26.678Z,4
2017-03-19T04:52:35.641Z,4
2017-03-19T04:53:44.605Z,8
2017-03-19T04:54:53.559Z,8
2017-03-19T04:56:02.813Z,8
2017-03-19T04:57:11.763Z,12
2017-03-19T04:58:20.722Z,12
2017-03-19T04:59:29.674Z,16
2017-03-19T05:00:38.620Z,20
2017-03-19T05:01:47.868Z,24
2017-03-19T05:02:56.820Z,28
2017-03-19T05:04:05.780Z,32
2017-03-19T05:05:14.732Z,36
2017-03-19T05:06:23.724Z,44
2017-03-19T05:07:32.968Z,44
2017-03-19T05:08:41.926Z,52
2017-03-19T05:09:51.196Z,64
2017-03-19T05:11:00.146Z,72
2017-03-19T05:12:09.107Z,80
2017-03-19T05:13:18.379Z,88
2017-03-19T05:14:27.343Z,100
2017-03-19T05:15:36.303Z,112
2017-03-19T05:16:45.255Z,124
2017-03-19T05:17:54.209Z,128
2017-03-19T05:19:03.412Z,140
2017-03-19T05:20:12.355Z,152
2017-03-19T05:21:21.322Z,164
2017-03-19T05:22:30.274Z,172
2017-03-19T05:23:39.224Z,184
2017-03-19T05:24:48.480Z,200
2017-03-19T05:25:57.532Z,220
2017-03-19T05:27:06.484Z,232
2017-03-19T05:28:15.439Z,252
2017-03-19T05:29:24.396Z,268
2017-03-19T05:30:33.658Z,288
2017-03-19T05:31:42.609Z,312
2017-03-19T05:32:51.565Z,348
2017-03-19T05:34:00.519Z,372
2017-03-19T05:35:09.468Z,392
2017-03-19T05:36:18.713Z,408
2017-03-19T05:37:27.678Z,416
2017-03-19T05:38:36.956Z,420
2017-03-19T05:39:45.915Z,444
2017-03-19T05:40:54.865Z,456
2017-03-19T05:42:04.115Z,464
2017-03-19T05:43:13.070Z,488
2017-03-19T05:44:22.034Z,528
2017-03-19T05:45:30.988Z,552
2017-03-19T05:46:39.939Z,580
2017-03-19T05:47:49.195Z,600
2017-03-19T05:48:58.478Z,608
2017-03-19T05:50:07.430Z,600
2017-03-19T05:51:16.383Z,604
2017-03-19T05:52:25.341Z,616
2017-03-19T05:53:34.933Z,632
2017-03-19T05:54:43.883Z,660
2017-03-19T05:55:52.835Z,668
2017-03-19T05:57:01.789Z,680
2017-03-19T05:58:10.745Z,732
2017-03-19T05:59:20.000Z,812
2017-03-19T06:00:29.275Z,892
2017-03-19T06:01:38.310Z,968
2017-03-19T06:02:47.354Z,1044
2017-03-19T06:03:56.349Z,1044
2017-03-19T06:05:05.604Z,996
2017-03-19T06:06:14.567Z,1024
2017-03-19T06:07:23.520Z,1092
2017-03-19T06:08:32.812Z,1176
2017-03-19T06:09:41.766Z,1232
2017-03-19T06:10:51.020Z,1244
2017-03-19T06:11:59.979Z,1260
2017-03-19T06:13:08.931Z,1328
2017-03-19T06:14:17.885Z,1300
2017-03-19T06:15:26.835Z,1384
2017-03-19T06:16:36.093Z,1532
2017-03-19T06:17:45.380Z,1516
2017-03-19T06:18:54.335Z,1512
2017-03-19T06:20:03.297Z,1568
2017-03-19T06:21:12.245Z,1592
2017-03-19T06:22:21.498Z,1584
2017-03-19T06:23:30.448Z,1636
2017-03-19T06:24:39.406Z,1704
2017-03-19T06:25:48.682Z,1672
2017-03-19T06:26:57.645Z,1636
2017-03-19T06:28:06.894Z,1680
2017-03-19T06:29:15.851Z,1688
2017-03-19T06:30:25.209Z,1616
2017-03-19T06:31:34.250Z,1616
2017-03-19T06:32:43.205Z,1672
2017-03-19T06:33:52.498Z,1732
2017-03-19T06:35:01.453Z,1732
2017-03-19T06:36:10.496Z,1712
2017-03-19T06:37:19.537Z,1740
2017-03-19T06:38:28.491Z,1800
2017-03-19T06:39:38.071Z,1860
2017-03-19T06:40:47.019Z,1880
2017-03-19T06:41:55.967Z,1916
2017-03-19T06:43:04.919Z,1944
2017-03-19T06:44:13.869Z,1912
2017-03-19T06:45:23.118Z,1860
2017-03-19T06:46:32.069Z,1800
2017-03-19T06:47:41.028Z,1764
2017-03-19T06:48:49.985Z,1772
2017-03-19T06:49:58.948Z,1808
2017-03-19T06:51:08.225Z,1868
2017-03-19T06:52:17.176Z,1912
2017-03-19T06:53:26.136Z,1932
2017-03-19T06:54:35.133Z,1952
2017-03-19T06:55:44.094Z,1972
2017-03-19T06:56:53.348Z,1976
2017-03-19T06:58:02.395Z,1952
2017-03-19T06:59:11.349Z,1944
2017-03-19T07:00:20.307Z,2004
2017-03-19T07:01:29.588Z,2052
2017-03-19T07:02:38.800Z,2032
2017-03-19T07:03:47.760Z,1980
2017-03-19T07:04:56.714Z,1908
2017-03-19T07:06:05.665Z,1832
2017-03-19T07:07:14.614Z,1812
2017-03-19T07:08:23.908Z,1896
2017-03-19T07:09:32.871Z,2032
2017-03-19T07:10:41.826Z,2136
2017-03-19T07:11:50.774Z,2172
2017-03-19T07:12:59.817Z,2192
2017-03-19T07:14:09.029Z,2264
2017-03-19T07:15:18.000Z,2380
2017-03-19T07:16:27.278Z,2408
2017-03-19T07:17:36.233Z,2380
2017-03-19T07:18:45.195Z,2380
2017-03-19T07:19:54.458Z,2424
2017-03-19T07:21:03.410Z,2436
2017-03-19T07:22:12.361Z,2452
2017-03-19T07:23:21.315Z,2496
2017-03-19T07:24:30.276Z,2548
2017-03-19T07:25:39.530Z,2604
2017-03-19T07:26:48.521Z,2636
2017-03-19T07:27:57.472Z,2648
2017-03-19T07:29:06.435Z,2628
2017-03-19T07:30:15.425Z,2592
2017-03-19T07:31:24.681Z,2540
2017-03-19T07:32:33.972Z,2468
2017-03-19T07:33:42.940Z,2468
2017-03-19T07:34:51.900Z,2500
2017-03-19T07:36:00.859Z,2564
2017-03-19T07:37:10.066Z,2700
2017-03-19T07:38:19.020Z,2840
2017-03-19T07:39:27.975Z,2924
2017-03-19T07:40:36.933Z,2972
2017-03-19T07:41:45.892Z,3028
2017-03-19T07:42:55.103Z,3076
2017-03-19T07:44:04.068Z,3080
2017-03-19T07:45:13.020Z,3036
2017-03-19T07:46:21.979Z,2964
2017-03-19T07:47:30.935Z,2856
2017-03-19T07:48:40.198Z,2748
2017-03-19T07:49:49.185Z,2644
2017-03-19T07:50:58.143Z,2584
2017-03-19T07:52:07.093Z,2572
2017-03-19T07:53:16.052Z,2580
2017-03-19T07:54:25.265Z,2572
2017-03-19T07:55:34.225Z,2556
2017-03-19T07:56:43.506Z,2592
2017-03-19T07:57:52.465Z,2680
2017-03-19T07:59:01.435Z,2752
2017-03-19T08:00:10.780Z,2832
2017-03-19T08:01:19.736Z,2948
2017-03-19T08:02:29.012Z,3016
2017-03-19T08:03:37.974Z,3060
2017-03-19T08:04:46.932Z,3112
2017-03-19T08:05:56.141Z,3144
2017-03-19T08:07:05.095Z,3120
2017-03-19T08:08:14.051Z,3116
2017-03-19T08:09:23.044Z,3196
2017-03-19T08:10:31.998Z,3284
2017-03-19T08:11:41.299Z,3364
2017-03-19T08:12:50.256Z,3404
2017-03-19T08:13:59.300Z,3428
2017-03-19T08:15:08.252Z,3460
2017-03-19T08:16:17.209Z,3512
2017-03-19T08:17:26.487Z,3564
2017-03-19T08:18:35.451Z,3576
2017-03-19T08:19:44.406Z,3568
2017-03-19T08:20:53.359Z,3548
2017-03-19T08:22:02.307Z,3508
2017-03-19T08:23:11.508Z,3440
2017-03-19T08:24:20.474Z,3340
2017-03-19T08:25:29.483Z,3200
2017-03-19T08:26:38.521Z,3060
2017-03-19T08:27:47.565Z,2944
2017-03-19T08:28:56.766Z,2848
2017-03-19T08:30:05.728Z,2804
2017-03-19T08:31:14.695Z,2792
2017-03-19T08:32:23.655Z,2768
2017-03-19T08:33:32.612Z,2764
2017-03-19T08:34:41.873Z,2784
2017-03-19T08:35:50.828Z,2856
2017-03-19T08:36:59.785Z,2988
2017-03-19T08:38:08.838Z,3136
2017-03-19T08:39:17.814Z,3272
2017-03-19T08:40:27.026Z,3416
2017-03-19T08:41:35.983Z,3540
2017-03-19T08:42:44.942Z,3680
2017-03-19T08:43:53.900Z,3752
2017-03-19T08:45:02.859Z,3680
2017-03-19T08:46:11.811Z,3668
2017-03-19T08:47:20.801Z,3648
2017-03-19T08:48:29.750Z,3656
2017-03-19T08:49:38.800Z,3836
2017-03-19T08:50:47.754Z,3980
2017-03-19T08:51:57.046Z,4076
2017-03-19T08:53:06.006Z,4240
2017-03-19T08:54:14.971Z,4240
2017-03-19T08:55:23.937Z,4116
2017-03-19T08:56:33.280Z,4096
2017-03-19T08:57:42.364Z,4084
2017-03-19T08:58:51.326Z,3956
2017-03-19T09:00:00.294Z,3828
2017-03-19T09:01:09.249Z,3856
2017-03-19T09:02:18.503Z,3920
2017-03-19T09:03:27.466Z,4104
2017-03-19T09:04:36.434Z,4504
2017-03-19T09:05:45.398Z,4884
2017-03-19T09:06:54.383Z,4604
2017-03-19T09:08:03.603Z,4616
2017-03-19T09:09:12.646Z,4768
2017-03-19T09:10:21.606Z,4624
2017-03-19T09:11:30.562Z,4372
2017-03-19T09:12:39.836Z,4188
2017-03-19T09:13:49.090Z,4108
2017-03-19T09:14:58.072Z,3936
2017-03-19T09:16:07.057Z,3764
2017-03-19T09:17:16.019Z,3692
2017-03-19T09:18:24.971Z,3672
2017-03-19T09:19:34.228Z,3692
2017-03-19T09:20:43.180Z,3744
2017-03-19T09:21:52.131Z,3864
2017-03-19T09:23:01.092Z,4020
2017-03-19T09:24:10.054Z,4216
2017-03-19T09:25:19.258Z,4480
2017-03-19T09:26:28.624Z,4744
2017-03-19T09:27:37.909Z,5016
2017-03-19T09:28:46.872Z,5012
2017-03-19T09:29:55.836Z,4768
2017-03-19T09:31:05.089Z,4576
2017-03-19T09:32:14.052Z,4272
2017-03-19T09:33:23.010Z,4064
2017-03-19T09:34:31.968Z,3976
2017-03-19T09:35:40.921Z,3936
2017-03-19T09:36:50.179Z,3972
2017-03-19T09:37:59.141Z,3964
2017-03-19T09:39:08.429Z,3852
2017-03-19T09:40:17.391Z,3784
2017-03-19T09:41:26.350Z,3712
2017-03-19T09:42:35.696Z,3676
2017-03-19T09:43:44.673Z,3752
2017-03-19T09:44:53.637Z,3848
2017-03-19T09:46:02.595Z,3952
2017-03-19T09:47:11.582Z,4100
2017-03-19T09:48:21.159Z,4184
2017-03-19T09:49:30.118Z,4340
2017-03-19T09:50:39.071Z,4416
2017-03-19T09:51:48.035Z,4200
2017-03-19T09:52:57.000Z,4012
2017-03-19T09:54:06.259Z,3984
2017-03-19T09:55:15.215Z,4052
2017-03-19T09:56:24.192Z,4088
2017-03-19T09:57:33.150Z,4060
2017-03-19T09:58:42.114Z,3904
2017-03-19T09:59:51.372Z,3652
2017-03-19T10:01:00.341Z,3432
2017-03-19T10:02:09.297Z,3260
2017-03-19T10:03:18.268Z,3104
2017-03-19T10:04:27.555Z,3040
2017-03-19T10:05:36.767Z,3060
2017-03-19T10:06:45.721Z,3088
2017-03-19T10:07:54.681Z,3032
2017-03-19T10:09:03.644Z,2952
2017-03-19T10:10:12.608Z,2864
2017-03-19T10:11:21.867Z,2844
2017-03-19T10:12:30.827Z,2864
2017-03-19T10:13:39.786Z,2836
2017-03-19T10:14:48.830Z,2880
2017-03-19T10:15:57.790Z,2924
2017-03-19T10:17:07.041Z,2980
2017-03-19T10:18:15.998Z,3036
2017-03-19T10:19:24.974Z,2996
2017-03-19T10:20:33.930Z,2912
2017-03-19T10:21:42.886Z,2976
2017-03-19T10:22:52.187Z,3004
2017-03-19T10:24:01.152Z,3044
2017-03-19T10:25:10.112Z,3048
2017-03-19T10:26:19.107Z,3036
2017-03-19T10:27:28.154Z,2996
2017-03-19T10:28:37.372Z,2936
2017-03-19T10:29:46.656Z,2852
2017-03-19T10:30:55.607Z,2868
2017-03-19T10:32:04.561Z,2908
2017-03-19T10:33:13.515Z,2960
2017-03-19T10:34:22.774Z,3004
2017-03-19T10:35:31.729Z,2976
2017-03-19T10:36:40.691Z,2892
2017-03-19T10:37:49.651Z,2856
2017-03-19T10:38:58.611Z,2824
2017-03-19T10:40:08.202Z,2808
2017-03-19T10:41:17.163Z,2828
2017-03-19T10:42:26.119Z,2864
2017-03-19T10:43:35.079Z,2864
2017-03-19T10:44:44.039Z,2868
2017-03-19T10:45:53.291Z,2908
2017-03-19T10:47:02.240Z,2904
2017-03-19T10:48:11.205Z,3008
2017-03-19T10:49:20.521Z,3012
2017-03-19T10:50:29.476Z,3012
2017-03-19T10:51:38.764Z,2884
2017-03-19T10:52:47.723Z,2880
2017-03-19T10:53:56.691Z,2920
2017-03-19T10:55:05.653Z,2924
2017-03-19T10:56:14.633Z,3080
2017-03-19T10:57:24.164Z,3160
2017-03-19T10:58:33.206Z,3168
2017-03-19T10:59:42.198Z,3232
2017-03-19T11:00:51.160Z,3272
2017-03-19T11:02:00.122Z,3188
2017-03-19T11:03:09.386Z,3068
2017-03-19T11:04:18.356Z,2944
2017-03-19T11:05:27.320Z,2824
2017-03-19T11:06:36.270Z,2716
2017-03-19T11:07:45.239Z,2556
2017-03-19T11:08:54.533Z,2444
2017-03-19T11:10:03.493Z,2432
2017-03-19T11:11:12.455Z,2396
2017-03-19T11:12:21.418Z,2348
2017-03-19T11:13:30.384Z,2320
2017-03-19T11:14:40.059Z,2376
2017-03-19T11:15:49.020Z,2464
2017-03-19T11:16:57.990Z,2412
2017-03-19T11:18:06.943Z,2340
2017-03-19T11:19:15.907Z,2312
2017-03-19T11:20:25.163Z,2348
2017-03-19T11:21:34.112Z,2452
2017-03-19T11:22:43.072Z,2536
2017-03-19T11:23:52.028Z,2656
2017-03-19T11:25:00.984Z,2704
2017-03-19T11:26:10.248Z,2712
2017-03-19T11:27:19.203Z,2696
2017-03-19T11:28:28.157Z,2728
2017-03-19T11:29:37.117Z,2772
2017-03-19T11:30:46.156Z,2840
2017-03-19T11:31:55.418Z,2872
2017-03-19T11:33:04.373Z,2916
2017-03-19T11:34:13.332Z,2916
2017-03-19T11:35:22.288Z,2856
2017-03-19T11:36:31.248Z,2816
2017-03-19T11:37:40.537Z,2836
2017-03-19T11:38:49.513Z,2760
2017-03-19T11:39:58.469Z,2780
2017-03-19T11:41:07.422Z,2584
2017-03-19T11:42:16.464Z,2960
2017-03-19T11:43:25.722Z,3072
2017-03-19T11:44:34.678Z,3044
2017-03-19T11:45:43.635Z,3100
2017-03-19T11:46:52.678Z,3264
2017-03-19T11:48:01.635Z,3260
2017-03-19T11:49:10.896Z,3328
2017-03-19T11:50:19.853Z,2996
2017-03-19T11:51:28.804Z,3144
2017-03-19T11:52:37.760Z,3360
2017-03-19T11:53:46.720Z,3116
2017-03-19T11:54:55.981Z,3280
2017-03-19T11:56:04.929Z,2820
2017-03-19T11:57:13.893Z,3040
2017-03-19T11:58:22.850Z,3452
2017-03-19T11:59:32.137Z,3488
2017-03-19T12:00:41.671Z,3512
2017-03-19T12:01:50.626Z,3524
2017-03-19T12:02:59.611Z,3504
2017-03-19T12:04:08.565Z,3424
2017-03-19T12:05:17.512Z,3376
2017-03-19T12:06:26.772Z,3332
2017-03-19T12:07:35.722Z,3144
2017-03-19T12:08:44.691Z,2924
2017-03-19T12:09:53.650Z,2512
2017-03-19T12:11:02.608Z,2512
2017-03-19T12:12:11.869Z,2740
2017-03-19T12:13:20.834Z,2608
2017-03-19T12:14:29.837Z,2612
2017-03-19T12:15:38.884Z,2004
2017-03-19T12:16:47.838Z,2264
2017-03-19T12:17:57.094Z,1832
2017-03-19T12:19:06.086Z,1536
2017-03-19T12:20:15.049Z,1836
2017-03-19T12:21:24.000Z,2132
2017-03-19T12:22:32.961Z,2616
2017-03-19T12:23:42.170Z,2364
2017-03-19T12:24:51.124Z,2308
2017-03-19T12:26:00.080Z,1924
2017-03-19T12:27:09.050Z,1668
2017-03-19T12:28:18.002Z,1780
2017-03-19T12:29:27.264Z,2284
2017-03-19T12:30:36.632Z,2276
2017-03-19T12:31:45.585Z,2148
2017-03-19T12:32:54.547Z,2144
2017-03-19T12:34:03.518Z,2140
2017-03-19T12:35:12.730Z,1740
2017-03-19T12:36:21.685Z,2060
2017-03-19T12:37:30.728Z,2396
2017-03-19T12:38:39.715Z,2532
2017-03-19T12:39:48.673Z,2552
2017-03-19T12:40:57.926Z,2608
2017-03-19T12:42:06.875Z,2560
2017-03-19T12:43:15.851Z,2720
2017-03-19T12:44:24.823Z,2660
2017-03-19T12:45:33.775Z,2764
2017-03-19T12:46:43.116Z,2676
2017-03-19T12:47:52.080Z,2736
2017-03-19T12:49:01.365Z,2628
2017-03-19T12:50:10.330Z,2648
2017-03-19T12:51:19.293Z,2604
2017-03-19T12:52:28.564Z,2672
2017-03-19T12:53:37.523Z,2512
2017-03-19T12:54:46.486Z,2452
2017-03-19T12:55:55.442Z,2292
2017-03-19T12:57:04.398Z,2380
2017-03-19T12:58:13.601Z,3000
2017-03-19T12:59:22.563Z,2528
2017-03-19T13:00:31.526Z,2812
2017-03-19T13:01:40.485Z,2424
2017-03-19T13:02:49.530Z,1832
2017-03-19T13:03:58.791Z,1712
2017-03-19T13:05:07.746Z,2100
2017-03-19T13:06:16.710Z,2188
2017-03-19T13:07:25.666Z,2036
2017-03-19T13:08:34.625Z,1728
2017-03-19T13:09:43.956Z,1644
2017-03-19T13:10:52.908Z,2212
2017-03-19T13:12:01.880Z,1712
2017-03-19T13:13:10.834Z,1600
2017-03-19T13:14:19.803Z,1608
2017-03-19T13:15:29.055Z,1668
2017-03-19T13:16:38.007Z,2000
2017-03-19T13:17:46.964Z,2344
2017-03-19T13:18:55.924Z,2704
2017-03-19T13:20:04.886Z,2228
2017-03-19T13:21:14.188Z,1712
2017-03-19T13:22:23.140Z,1404
2017-03-19T13:23:32.095Z,1308
2017-03-19T13:24:41.049Z,1032
2017-03-19T13:25:49.999Z,976
2017-03-19T13:26:59.206Z,1000
2017-03-19T13:28:08.170Z,1252
2017-03-19T13:29:17.130Z,1624
2017-03-19T13:30:26.201Z,1384
2017-03-19T13:31:35.149Z,1572
2017-03-19T13:32:44.411Z,1180
2017-03-19T13:33:53.363Z,1228
2017-03-19T13:35:02.326Z,1440
2017-03-19T13:36:11.281Z,1276
2017-03-19T13:37:20.241Z,1812
2017-03-19T13:38:29.499Z,1812
2017-03-19T13:39:38.783Z,1816
2017-03-19T13:40:47.748Z,1768
2017-03-19T13:41:56.703Z,1488
2017-03-19T13:43:05.755Z,1360
2017-03-19T13:44:15.022Z,1452
2017-03-19T13:45:23.976Z,1160
2017-03-19T13:46:32.931Z,1080
2017-03-19T13:47:41.895Z,912
2017-03-19T13:48:50.852Z,968
2017-03-19T13:50:00.103Z,1036
2017-03-19T13:51:09.061Z,1004
2017-03-19T13:52:18.016Z,1276
2017-03-19T13:53:26.981Z,1460
2017-03-19T13:54:35.940Z,1368
2017-03-19T13:55:45.146Z,1464
2017-03-19T13:56:54.094Z,1112
2017-03-19T13:58:03.051Z,1156
2017-03-19T13:59:12.016Z,1088
2017-03-19T14:00:20.974Z,696
2017-03-19T14:01:30.225Z,748
2017-03-19T14:02:39.186Z,692
2017-03-19T14:03:48.140Z,1036
2017-03-19T14:04:57.094Z,932
2017-03-19T14:06:06.056Z,1288
2017-03-19T14:07:15.350Z,1312
2017-03-19T14:08:24.310Z,1480
2017-03-19T14:09:33.272Z,1504
2017-03-19T14:10:42.558Z,1280
2017-03-19T14:11:51.514Z,1192
2017-03-19T14:13:00.722Z,1248
2017-03-19T14:14:09.680Z,1048
2017-03-19T14:15:18.755Z,852
2017-03-19T14:16:28.061Z,1152
2017-03-19T14:17:37.016Z,980
2017-03-19T14:18:46.284Z,1248
2017-03-19T14:19:55.252Z,1188
2017-03-19T14:21:04.202Z,976
2017-03-19T14:22:13.148Z,1216
2017-03-19T14:23:22.106Z,1156
2017-03-19T14:24:40.798Z,1192
2017-03-19T14:25:51.264Z,1252
2017-03-19T14:27:04.178Z,1340
2017-03-19T14:28:15.584Z,1460
2017-03-19T14:29:24.846Z,1748
2017-03-19T14:30:33.799Z,1552
2017-03-19T14:31:43.055Z,1796
2017-03-19T14:32:52.042Z,1992
2017-03-19T14:34:01.008Z,1240
2017-03-19T14:35:10.281Z,1504
2017-03-19T14:36:19.242Z,1256
2017-03-19T14:37:28.201Z,1116
2017-03-19T14:38:37.154Z,1112
2017-03-19T14:39:46.111Z,968
2017-03-19T14:40:55.366Z,864
2017-03-19T14:42:04.319Z,704
2017-03-19T14:43:13.317Z,596
2017-03-19T14:44:22.271Z,908
2017-03-19T14:45:31.227Z,952
2017-03-19T14:46:40.430Z,1012
2017-03-19T14:47:49.390Z,1112
2017-03-19T14:48:58.708Z,1312
2017-03-19T14:50:07.690Z,1216
2017-03-19T14:51:16.705Z,1140
2017-03-19T14:52:25.965Z,1136
2017-03-19T14:53:35.478Z,1012
2017-03-19T14:54:44.442Z,860
2017-03-19T14:55:53.480Z,896
2017-03-19T14:57:02.509Z,696
2017-03-19T14:58:11.773Z,568
2017-03-19T14:59:20.731Z,624
2017-03-19T15:00:29.878Z,640
2017-03-19T15:01:38.833Z,508
2017-03-19T15:02:47.784Z,456
2017-03-19T15:03:57.092Z,452
2017-03-19T15:05:06.194Z,492
2017-03-19T15:06:15.556Z,568
2017-03-19T15:07:24.865Z,740
2017-03-19T15:08:33.823Z,772
2017-03-19T15:09:43.198Z,904
2017-03-19T15:10:52.174Z,880
2017-03-19T15:12:01.138Z,684
2017-03-19T15:13:10.106Z,888
2017-03-19T15:14:19.063Z,472
2017-03-19T15:15:28.275Z,552
2017-03-19T15:16:37.319Z,476
2017-03-19T15:17:46.443Z,424
2017-03-19T15:18:55.460Z,368
2017-03-19T15:20:04.886Z,332
2017-03-19T15:21:14.238Z,304
2017-03-19T15:22:23.200Z,304
2017-03-19T15:23:32.184Z,348
2017-03-19T15:24:41.233Z,336
2017-03-19T15:25:50.186Z,504
2017-03-19T15:26:59.666Z,572
2017-03-19T15:28:08.814Z,432
2017-03-19T15:29:17.812Z,476
2017-03-19T15:30:26.770Z,288
2017-03-19T15:31:42.002Z,520
2017-03-19T15:32:59.489Z,748
2017-03-19T15:34:15.574Z,904
2017-03-19T15:35:29.407Z,1064
2017-03-19T15:36:39.858Z,1024
2017-03-19T15:37:50.059Z,1056
2017-03-19T15:39:02.058Z,1004
2017-03-19T15:40:15.020Z,852
2017-03-19T15:41:29.572Z,964
2017-03-19T15:42:43.645Z,1028
2017-03-19T15:43:57.538Z,824
2017-03-19T15:45:07.626Z,1040
2017-03-19T15:46:16.667Z,1016
2017-03-19T15:47:25.618Z,720
2017-03-19T15:48:34.581Z,712
2017-03-19T15:49:43.836Z,860
2017-03-19T15:50:52.787Z,740
2017-03-19T15:52:01.745Z,832
2017-03-19T15:53:11.076Z,808
2017-03-19T15:54:20.073Z,772